Latest Weather Observations for Blackall

IDQ60801

Issued at 4:05 pm EST Saturday 2 August 2014 (issued every 30 minutes, with the page automatically refreshed every 10 minutes)

About weather observations | Map of weather stations | Latest weather observations for QLD | Other Formats
Station Details ID: 036034 Name: BLACKALL AIRPORT Lat: -24.43 Lon: 145.43 Height: 281.3 m
Data from the previous 72 hours. | See also: Recent months at Blackall
Date/Time
EST
Temp
°C
App
Temp
°C
Dew
Point
Rel
Hum
%
Delta-T
°C
Wind Press
QNH
hPa
Press
MSL
hPa
Rain
since 9 am
mm
Dir
 
Spd
km/h
Gust
km/h
Spd
kts
Gust
kts
02/04:00pm 20.3 14.0 -5.5 17 10.3 SSE 19 30 10 16 1021.8 1021.3 0.0
02/03:30pm 19.3 12.9 -7.1 16 10.1 SSE 19 28 10 15 1021.9 - 0.0
02/03:00pm 19.6 13.1 -6.1 17 10.1 ESE 20 26 11 14 1021.8 1021.3 0.0
02/02:30pm 19.6 13.2 -5.3 18 10.0 SSE 20 39 11 21 1022.0 - 0.0
02/02:00pm 19.6 12.8 -5.3 18 10.0 SE 22 30 12 16 1022.4 1021.9 0.0
02/01:30pm 18.4 12.1 -6.3 18 9.6 SE 19 30 10 16 1022.9 - 0.0
02/01:00pm 18.3 11.9 -6.4 18 9.5 SE 19 30 10 16 1023.3 1022.8 0.0
02/12:30pm 17.6 11.1 -6.3 19 9.2 SSE 20 30 11 16 1023.7 - 0.0
02/12:00pm 17.1 8.7 -6.0 20 8.9 ESE 30 37 16 20 1024.1 1023.7 0.0
02/11:30am 16.4 8.8 -6.0 21 8.6 SSE 26 35 14 19 1024.6 - 0.0
02/11:00am 15.9 7.8 -6.4 21 8.4 SE 28 39 15 21 1024.9 1024.5 0.0
02/10:30am 15.1 7.1 -5.9 23 7.9 SE 28 39 15 21 1025.0 - 0.0
02/10:04am 14.7 6.0 -5.6 24 7.6 SE 32 50 17 27 1025.2 - 0.0
02/10:00am 13.9 4.9 -6.3 24 7.4 SE 33 50 18 27 1025.2 1024.8 0.0
02/09:46am 14.0 5.2 -5.7 25 7.4 SE 32 50 17 27 1025.2 - 0.0
02/09:30am 13.3 4.3 -5.8 26 7.1 SE 33 48 18 26 1025.0 - 0.0
02/09:00am 12.6 3.7 -5.4 28 6.6 SE 33 44 18 24 1024.8 1024.4 0.0
02/08:30am 11.7 3.0 -5.3 30 6.2 SE 32 46 17 25 1024.7 - 0.0
02/08:00am 10.5 4.2 -5.9 31 5.8 SE 19 33 10 18 1024.4 1024.0 0.0
02/07:30am 8.8 3.6 -5.8 35 5.1 SSE 13 20 7 11 1024.1 - 0.0
02/07:00am 8.3 3.1 -5.9 36 4.9 SSE 13 19 7 10 1023.8 1023.4 0.0
02/06:30am 8.6 2.7 -6.0 35 5.1 SSE 17 26 9 14 1023.4 - 0.0
02/06:00am 8.7 2.7 -6.3 34 5.2 SSE 17 24 9 13 1023.1 1022.6 0.0
02/05:30am 9.3 3.4 -6.1 33 5.4 SSE 17 26 9 14 1022.8 - 0.0
02/05:00am 9.0 3.1 -6.0 34 5.2 S 17 22 9 12 1022.7 1022.2 0.0
02/04:30am 9.2 3.7 -5.8 34 5.3 S 15 20 8 11 1022.7 - 0.0
02/04:00am 9.7 4.6 -5.4 34 5.4 S 13 19 7 10 1022.8 1022.3 0.0
02/03:30am 10.1 4.6 -5.0 34 5.5 S 15 20 8 11 1022.5 - 0.0
02/03:00am 10.5 5.5 -4.7 34 5.6 SSE 13 17 7 9 1022.7 1022.2 0.0
02/02:30am 11.4 6.4 -3.9 34 5.8 S 13 19 7 10 1022.8 - 0.0
02/02:00am 11.9 6.7 -3.1 35 5.8 S 15 22 8 12 1022.8 1022.3 0.0
02/01:30am 12.6 6.7 -2.1 36 5.9 S 19 24 10 13 1022.7 - 0.0
02/01:00am 13.2 7.2 -1.2 37 5.9 S 20 28 11 15 1022.7 1022.2 0.0
02/12:30am 13.8 7.7 0.5 40 5.7 S 22 35 12 19 1022.3 - 0.0
02/12:00am 14.2 9.1 0.8 40 5.8 S 17 26 9 14 1022.2 1021.7 0.0
 
Date/Time
EST
Temp
°C
App
Temp
°C
Dew
Point
Rel
Hum
%
Delta-T
°C
Wind Press
QNH
hPa
Press
MSL
hPa
Rain
since 9 am
mm
Dir
 
Spd
km/h
Gust
km/h
Spd
kts
Gust
kts
01/11:30pm 15.1 9.7 1.3 39 6.1 S 19 26 10 14 1021.9 - 0.0
01/11:00pm 15.4 10.4 1.2 38 6.2 SSW 17 20 9 11 1021.7 1021.2 0.0
01/10:30pm 16.4 10.9 0.9 35 6.9 SSW 19 26 10 14 1021.3 - 0.0
01/10:00pm 16.8 11.6 0.0 32 7.3 SSW 17 22 9 12 1021.0 1020.6 0.0
01/09:30pm 17.5 12.6 -0.7 29 7.9 SSW 15 24 8 13 1020.5 - 0.0
01/09:00pm 18.0 12.5 -2.3 25 8.5 SSW 17 26 9 14 1020.0 1019.5 0.0
01/08:30pm 18.8 13.2 -2.7 23 9.0 SSW 17 24 9 13 1019.6 - 0.0
01/08:00pm 19.2 13.4 -4.3 20 9.6 SSW 17 22 9 12 1019.1 1018.6 0.0
01/07:30pm 19.8 14.3 -5.2 18 10.1 SSW 15 20 8 11 1018.5 - 0.0
01/07:00pm 21.0 15.5 -5.7 16 10.8 SSW 15 22 8 12 1018.0 1017.5 0.0
01/06:30pm 21.7 16.0 -7.9 13 11.5 SW 15 22 8 12 1017.4 - 0.0
01/06:00pm 22.7 16.6 -8.1 12 12.1 WSW 17 20 9 11 1016.9 1016.4 0.0
01/05:30pm 24.8 18.1 -7.6 11 13.1 SW 20 32 11 17 1016.5 - 0.0
01/05:00pm 25.9 18.9 -6.8 11 13.5 SW 22 30 12 16 1016.2 1015.7 0.0
01/04:30pm 26.7 20.6 -7.4 10 14.1 SW 17 28 9 15 1015.8 - 0.0
01/04:00pm 27.3 22.4 -6.9 10 14.3 WSW 11 22 6 12 1015.8 1015.3 0.0
01/03:30pm 27.3 21.7 -6.9 10 14.3 WSW 15 20 8 11 1015.9 - 0.0
01/03:00pm 27.4 21.8 -6.9 10 14.4 W 15 24 8 13 1016.0 1015.5 0.0
01/02:30pm 27.3 21.7 -6.9 10 14.3 SW 15 28 8 15 1016.1 - 0.0
01/02:00pm 26.8 21.6 -6.1 11 13.9 SW 13 24 7 13 1016.3 1015.8 0.0
01/01:30pm 26.8 22.1 -4.9 12 13.7 W 11 24 6 13 1016.5 - 0.0
01/01:00pm 26.4 21.3 -5.3 12 13.5 W 13 28 7 15 1016.9 1016.4 0.0
01/12:30pm 25.8 21.2 -3.7 14 12.9 WSW 11 20 6 11 1017.4 - 0.0
01/12:00pm 25.2 21.5 -4.2 14 12.7 SW 6 19 3 10 1018.0 1017.5 0.0
01/11:30am 24.3 20.4 -4.9 14 12.4 WSW 7 11 4 6 1018.4 - 0.0
01/11:00am 23.8 19.9 -4.4 15 12.0 SE 7 13 4 7 1018.8 1018.3 0.0
01/10:30am 22.7 19.9 -0.1 22 10.4 SW 4 11 2 6 1019.1 - 0.0
01/10:00am 21.4 18.4 2.2 28 9.1 W 7 11 4 6 1019.3 1018.8 0.0
01/09:30am 19.7 18.0 2.1 31 8.2 CALM 0 0 0 0 1019.4 - 0.0
01/09:00am 18.2 15.6 3.3 37 7.0 WNW 6 9 3 5 1019.3 1019.1 0.0
01/08:30am 15.5 13.7 3.6 45 5.5 N 2 7 1 4 1019.1 - 0.0
01/08:00am 12.9 11.4 3.0 51 4.4 CALM 0 0 0 0 1018.7 1018.4 0.0
01/07:30am 10.4 7.5 2.7 59 3.4 NNE 7 9 4 5 1018.3 - 0.0
01/07:00am 8.0 4.6 1.8 65 2.6 ENE 9 13 5 7 1018.0 1017.7 0.0
01/06:30am 9.3 7.8 2.9 64 2.8 CALM 0 6 0 3 1017.5 - 0.0
01/06:00am 9.5 6.6 2.6 62 3.0 E 7 9 4 5 1017.2 1017.0 0.0
01/05:30am 10.5 7.8 2.8 59 3.4 SE 6 6 3 3 1017.1 - 0.0
01/05:00am 11.3 8.6 2.9 56 3.7 S 6 7 3 4 1017.1 1016.9 0.0
01/04:30am 11.7 8.5 3.2 56 3.8 SW 9 11 5 6 1016.8 - 0.0
01/04:00am 11.7 6.7 3.7 58 3.6 SW 19 30 10 16 1016.7 1016.5 0.0
01/03:30am 11.8 9.0 3.1 55 3.9 NNE 7 9 4 5 1016.0 - 0.0
01/03:00am 12.1 9.0 3.6 56 3.8 NE 9 11 5 6 1015.9 1015.6 0.0
01/02:30am 11.9 8.7 3.2 55 3.9 NE 9 11 5 6 1016.2 - 0.0
01/02:00am 12.1 9.2 2.6 52 4.2 NNE 7 9 4 5 1016.4 1016.2 0.0
01/01:30am 13.5 10.3 3.3 50 4.6 NE 9 11 5 6 1016.4 - 0.0
01/01:00am 13.6 10.3 2.5 47 5.0 NE 9 11 5 6 1016.5 1016.3 0.0
01/12:30am 14.3 11.4 2.5 45 5.3 NNE 7 9 4 5 1016.6 - 0.0
01/12:00am 14.5 11.5 2.1 43 5.5 NE 7 9 4 5 1016.7 1016.5 0.0
 
Date/Time
EST
Temp
°C
App
Temp
°C
Dew
Point
Rel
Hum
%
Delta-T
°C
Wind Press
QNH
hPa
Press
MSL
hPa
Rain
since 9 am
mm
Dir
 
Spd
km/h
Gust
km/h
Spd
kts
Gust
kts
31/11:30pm 15.7 12.4 2.5 41 6.0 NE 9 13 5 7 1016.7 - 0.0
31/11:00pm 15.1 12.0 1.3 39 6.1 N 7 7 4 4 1016.7 1016.5 0.0
31/10:30pm 16.0 12.9 1.3 37 6.5 N 7 9 4 5 1016.8 - 0.0
31/10:00pm 17.7 16.1 2.5 36 7.0 CALM 0 4 0 2 1017.0 1016.8 0.0
31/09:30pm 18.4 15.1 2.7 35 7.3 N 9 13 5 7 1017.1 - 0.0
31/09:00pm 18.2 15.4 2.1 34 7.4 NW 6 7 3 4 1017.0 1016.8 0.0
31/08:30pm 18.7 15.7 2.1 33 7.7 WNW 7 9 4 5 1016.9 - 0.0
31/08:00pm 19.0 15.8 3.2 35 7.5 N 9 11 5 6 1016.7 1016.5 0.0
31/07:30pm 17.6 14.2 1.6 34 7.3 N 9 11 5 6 1016.4 - 0.0
31/07:00pm 19.1 16.1 1.1 30 8.2 NNW 6 7 3 4 1016.1 1015.9 0.0
31/06:30pm 21.4 18.4 2.2 28 9.1 NNW 7 9 4 5 1015.7 - 0.0
31/06:00pm 23.3 20.0 2.2 25 10.1 NNW 9 13 5 7 1015.5 1015.2 0.0
31/05:30pm 25.2 20.8 2.6 23 11.1 NNW 15 19 8 10 1015.3 - 0.0
31/05:00pm 26.2 22.6 2.8 22 11.6 NW 11 19 6 10 1015.2 1014.9 0.0
31/04:30pm 26.5 22.5 3.1 22 11.7 NNW 13 24 7 13 1015.2 - 0.0
31/04:00pm 27.0 23.1 3.5 22 11.8 NW 13 22 7 12 1015.4 1015.1 0.0
31/03:30pm 26.9 23.0 3.4 22 11.8 N 13 20 7 11 1015.4 - 0.0
31/03:00pm 26.3 22.7 2.9 22 11.6 NNW 11 17 6 9 1015.8 1015.5 0.0
31/02:30pm 27.0 22.7 3.5 22 11.8 N 15 24 8 13 1016.2 - 0.0
31/02:00pm 26.4 21.2 2.3 21 11.8 NNW 19 24 10 13 1016.6 1016.4 0.0
31/01:30pm 26.6 23.9 3.8 23 11.5 N 7 17 4 9 1017.1 - 0.0
31/01:00pm 25.8 21.1 3.1 23 11.3 NNW 17 24 9 13 1017.7 1017.5 0.0
31/12:30pm 26.3 22.8 3.5 23 11.4 NNW 11 26 6 14 1018.4 - 0.0
31/12:00pm 25.6 21.3 3.5 24 11.0 N 15 22 8 12 1019.0 1018.7 0.0
31/11:30am 24.9 20.8 4.6 27 10.3 N 15 26 8 14 1019.6 - 0.0
31/11:00am 24.1 20.3 5.9 31 9.4 N 15 22 8 12 1020.2 1020.0 0.0
31/10:30am 22.4 18.6 5.8 34 8.5 NNE 15 24 8 13 1020.6 - 0.0
31/10:00am 21.7 17.6 6.4 37 7.8 N 17 22 9 12 1020.8 1020.6 0.0
31/09:30am 19.7 16.3 6.1 41 6.9 N 13 17 7 9 1020.8 - 0.0
31/09:00am 17.9 14.1 5.8 45 6.0 N 15 20 8 11 1020.7 1020.5 0.0
31/08:30am 16.1 12.9 5.1 48 5.3 NNE 11 17 6 9 1020.7 - 0.0
31/08:00am 13.4 12.1 4.0 53 4.3 CALM 0 0 0 0 1020.5 1020.3 0.0
31/07:30am 10.6 7.6 3.9 63 3.0 ESE 9 11 5 6 1020.3 - 0.0
31/07:00am 8.7 5.5 3.1 68 2.4 SE 9 9 5 5 1020.0 1019.8 0.0
31/06:30am 8.2 5.2 2.2 66 2.5 SE 7 9 4 5 1019.7 - 0.0
31/06:00am 8.8 6.1 2.6 65 2.7 SE 6 7 3 4 1019.3 1019.1 0.0
31/05:30am 9.5 7.8 2.1 60 3.2 CALM 0 0 0 0 1019.1 - 0.0
31/05:00am 10.5 7.9 3.3 61 3.2 E 6 9 3 5 1018.9 1018.6 0.0
31/04:30am 11.1 8.1 3.9 61 3.3 E 9 9 5 5 1018.7 - 0.0
31/04:00am 10.9 8.2 2.5 56 3.7 NE 6 11 3 6 1018.7 1018.4 0.0
31/03:30am 12.4 9.4 2.3 50 4.5 NNW 7 9 4 5 1018.8 - 0.0
31/03:00am 14.6 12.1 3.7 48 5.0 N 6 9 3 5 1018.9 1018.6 0.0
31/02:30am 15.4 12.3 3.5 45 5.5 N 9 13 5 7 1019.1 - 0.0
31/02:00am 16.8 14.2 4.2 43 6.0 N 7 11 4 6 1019.2 1019.0 0.0
31/01:30am 15.5 12.0 3.6 45 5.5 NNE 11 13 6 7 1019.3 - 0.0
31/01:11am 16.0 12.7 6.4 53 4.7 ENE 13 17 7 9 1019.5 - 0.0
31/01:00am 10.9 7.9 1.7 53 3.9 ENE 7 11 4 6 1019.5 1019.3 0.0
31/12:30am 11.5 8.5 2.0 52 4.1 SSE 7 9 4 5 1019.6 - 0.0
31/12:00am 11.7 9.9 1.4 49 4.4 CALM 0 0 0 0 1019.5 1019.3 0.0
 
Date/Time
EST
Temp
°C
App
Temp
°C
Dew
Point
Rel
Hum
%
Delta-T
°C
Wind Press
QNH
hPa
Press
MSL
hPa
Rain
since 9 am
mm
Dir
 
Spd
km/h
Gust
km/h
Spd
kts
Gust
kts
30/11:30pm 12.4 9.6 2.3 50 4.5 NNE 6 9 3 5 1019.7 - 0.0
30/11:00pm 13.2 10.4 2.1 47 4.9 NE 6 7 3 4 1019.9 1019.7 0.0
30/10:30pm 14.1 11.8 2.7 46 5.1 E 4 9 2 5 1020.1 - 0.0
30/10:00pm 14.1 11.4 2.4 45 5.2 SE 6 7 3 4 1019.9 1019.7 0.0
30/09:30pm 14.3 12.0 2.5 45 5.3 ENE 4 7 2 4 1019.9 - 0.0
30/09:00pm 14.5 11.7 1.8 42 5.6 S 6 6 3 3 1019.7 1019.5 0.0
30/08:30pm 16.5 13.8 2.5 39 6.4 N 6 7 3 4 1019.6 - 0.0
30/08:00pm 16.7 13.5 3.0 40 6.3 E 9 11 5 6 1019.5 1019.3 0.0
30/07:30pm 16.6 14.0 1.1 35 6.9 W 4 6 2 3 1019.3 - 0.0
30/07:00pm 18.4 16.3 1.4 32 7.7 WSW 2 6 1 3 1019.0 1018.7 0.0
30/06:30pm 20.2 18.4 1.1 28 8.8 CALM 0 0 0 0 1018.7 - 0.0
30/06:00pm 23.2 21.5 2.1 25 10.1 CALM 0 0 0 0 1018.5 1018.2 0.0
30/05:30pm 26.0 24.3 2.0 21 11.7 CALM 0 0 0 0 1018.5 - 0.0
30/05:00pm 26.2 23.2 2.2 21 11.7 NNE 7 9 4 5 1018.5 1018.2 0.0
30/04:30pm 26.8 24.0 2.0 20 12.2 S 6 11 3 6 1018.3 - 0.0

Other Formats:

Comma delimited format used in spreadsheet applications
http://www.bom.gov.au/fwo/IDQ60801/IDQ60801.95351.axf

JavaScript Object Notation format (JSON) in row-major order
http://www.bom.gov.au/fwo/IDQ60801/IDQ60801.95351.json